sensor_id;sensor_type;location;lat;lon;timestamp;temperature;humidity
1137;DHT22;557;48.466;7.950;2023-06-22T00:00:26;22.10;99.90
1137;DHT22;557;48.466;7.950;2023-06-22T00:03:13;22.00;99.90
1137;DHT22;557;48.466;7.950;2023-06-22T00:06:00;22.00;99.90
1137;DHT22;557;48.466;7.950;2023-06-22T00:08:48;22.00;99.90
1137;DHT22;557;48.466;7.950;2023-06-22T00:11:37;22.00;99.90
1137;DHT22;557;48.466;7.950;2023-06-22T00:14:24;21.90;99.90
1137;DHT22;557;48.466;7.950;2023-06-22T00:17:11;21.90;99.90
1137;DHT22;557;48.466;7.950;2023-06-22T00:19:59;21.90;99.90
1137;DHT22;557;48.466;7.950;2023-06-22T00:22:46;21.80;99.90
1137;DHT22;557;48.466;7.950;2023-06-22T00:25:34;21.80;99.90
1137;DHT22;557;48.466;7.950;2023-06-22T00:28:23;21.80;99.90
1137;DHT22;557;48.466;7.950;2023-06-22T00:31:10;21.70;99.90
1137;DHT22;557;48.466;7.950;2023-06-22T00:33:57;21.70;99.90
1137;DHT22;557;48.466;7.950;2023-06-22T00:36:45;21.70;99.90
1137;DHT22;557;48.466;7.950;2023-06-22T00:39:32;21.70;99.90
1137;DHT22;557;48.466;7.950;2023-06-22T00:42:19;21.70;99.90
1137;DHT22;557;48.466;7.950;2023-06-22T00:45:09;21.70;99.90
1137;DHT22;557;48.466;7.950;2023-06-22T00:47:57;21.60;99.90
1137;DHT22;557;48.466;7.950;2023-06-22T00:50:45;21.60;99.90
1137;DHT22;557;48.466;7.950;2023-06-22T00:53:36;21.60;99.90
1137;DHT22;557;48.466;7.950;2023-06-22T00:56:24;21.80;99.90
1137;DHT22;557;48.466;7.950;2023-06-22T00:59:11;21.70;99.90
1137;DHT22;557;48.466;7.950;2023-06-22T01:02:00;21.70;99.90
1137;DHT22;557;48.466;7.950;2023-06-22T01:04:48;21.60;99.90
1137;DHT22;557;48.466;7.950;2023-06-22T01:07:48;21.50;99.90
1137;DHT22;557;48.466;7.950;2023-06-22T01:10:46;21.60;99.90
1137;DHT22;557;48.466;7.950;2023-06-22T01:13:40;21.50;99.90
1137;DHT22;557;48.466;7.950;2023-06-22T01:16:30;21.50;99.90
1137;DHT22;557;48.466;7.950;2023-06-22T01:19:34;21.40;99.90
1137;DHT22;557;48.466;7.950;2023-06-22T01:22:24;21.30;99.90
1137;DHT22;557;48.466;7.950;2023-06-22T01:25:20;21.20;99.90
1137;DHT22;557;48.466;7.950;2023-06-22T01:31:16;21.00;99.90
1137;DHT22;557;48.466;7.950;2023-06-22T01:34:06;20.90;99.90
1137;DHT22;557;48.466;7.950;2023-06-22T01:36:54;20.70;99.90
1137;DHT22;557;48.466;7.950;2023-06-22T01:39:42;20.70;99.90
1137;DHT22;557;48.466;7.950;2023-06-22T01:42:30;20.60;99.90
1137;DHT22;557;48.466;7.950;2023-06-22T01:45:18;20.70;99.90
1137;DHT22;557;48.466;7.950;2023-06-22T01:48:08;20.70;99.90
1137;DHT22;557;48.466;7.950;2023-06-22T01:50:55;20.70;99.90
1137;DHT22;557;48.466;7.950;2023-06-22T01:53:43;20.60;99.90
1137;DHT22;557;48.466;7.950;2023-06-22T01:56:30;20.60;99.90
1137;DHT22;557;48.466;7.950;2023-06-22T01:59:25;20.60;99.90
1137;DHT22;557;48.466;7.950;2023-06-22T02:02:15;20.60;99.90
1137;DHT22;557;48.466;7.950;2023-06-22T02:05:07;20.60;99.90
1137;DHT22;557;48.466;7.950;2023-06-22T02:08:00;20.60;99.90
1137;DHT22;557;48.466;7.950;2023-06-22T02:10:51;20.60;99.90
1137;DHT22;557;48.466;7.950;2023-06-22T02:13:39;20.70;99.90
1137;DHT22;557;48.466;7.950;2023-06-22T02:16:31;20.70;99.90
1137;DHT22;557;48.466;7.950;2023-06-22T02:19:22;20.70;99.90
1137;DHT22;557;48.466;7.950;2023-06-22T02:22:12;20.60;99.90
1137;DHT22;557;48.466;7.950;2023-06-22T02:24:59;20.60;99.90
1137;DHT22;557;48.466;7.950;2023-06-22T02:27:47;20.60;99.90
1137;DHT22;557;48.466;7.950;2023-06-22T02:30:34;20.50;99.90
1137;DHT22;557;48.466;7.950;2023-06-22T02:33:21;20.40;99.90
1137;DHT22;557;48.466;7.950;2023-06-22T02:36:09;20.40;99.90
1137;DHT22;557;48.466;7.950;2023-06-22T02:39:00;20.40;99.90
1137;DHT22;557;48.466;7.950;2023-06-22T02:41:49;20.30;99.90
1137;DHT22;557;48.466;7.950;2023-06-22T02:44:37;20.30;99.90
1137;DHT22;557;48.466;7.950;2023-06-22T02:47:25;20.20;99.90
1137;DHT22;557;48.466;7.950;2023-06-22T02:50:12;20.20;99.90
1137;DHT22;557;48.466;7.950;2023-06-22T02:52:59;20.20;99.90
1137;DHT22;557;48.466;7.950;2023-06-22T02:55:48;20.10;99.90
1137;DHT22;557;48.466;7.950;2023-06-22T02:58:35;20.20;99.90
1137;DHT22;557;48.466;7.950;2023-06-22T03:01:25;20.20;99.90
1137;DHT22;557;48.466;7.950;2023-06-22T03:04:13;20.20;99.90
1137;DHT22;557;48.466;7.950;2023-06-22T03:07:01;20.10;99.90
1137;DHT22;557;48.466;7.950;2023-06-22T03:09:48;20.10;99.90
1137;DHT22;557;48.466;7.950;2023-06-22T03:12:38;20.10;99.90
1137;DHT22;557;48.466;7.950;2023-06-22T03:15:25;20.10;99.90
1137;DHT22;557;48.466;7.950;2023-06-22T03:18:15;20.10;99.90
1137;DHT22;557;48.466;7.950;2023-06-22T03:21:02;20.10;99.90
1137;DHT22;557;48.466;7.950;2023-06-22T03:23:50;20.10;99.90
1137;DHT22;557;48.466;7.950;2023-06-22T03:26:37;20.10;99.90
1137;DHT22;557;48.466;7.950;2023-06-22T03:29:26;20.20;99.90
1137;DHT22;557;48.466;7.950;2023-06-22T03:32:13;20.10;99.90
1137;DHT22;557;48.466;7.950;2023-06-22T03:35:00;20.10;99.90
1137;DHT22;557;48.466;7.950;2023-06-22T03:37:48;20.10;99.90
1137;DHT22;557;48.466;7.950;2023-06-22T03:40:35;20.10;99.90
1137;DHT22;557;48.466;7.950;2023-06-22T03:43:23;20.10;99.90
1137;DHT22;557;48.466;7.950;2023-06-22T03:46:11;20.10;99.90
1137;DHT22;557;48.466;7.950;2023-06-22T03:48:59;20.00;99.90
1137;DHT22;557;48.466;7.950;2023-06-22T03:51:47;20.00;99.90
1137;DHT22;557;48.466;7.950;2023-06-22T03:54:34;20.00;99.90
1137;DHT22;557;48.466;7.950;2023-06-22T03:57:22;19.90;99.90
1137;DHT22;557;48.466;7.950;2023-06-22T04:00:10;19.90;99.90
1137;DHT22;557;48.466;7.950;2023-06-22T04:02:59;19.90;99.90
1137;DHT22;557;48.466;7.950;2023-06-22T04:05:46;20.00;99.90
1137;DHT22;557;48.466;7.950;2023-06-22T04:08:34;20.00;99.90
1137;DHT22;557;48.466;7.950;2023-06-22T04:11:21;20.00;99.90
1137;DHT22;557;48.466;7.950;2023-06-22T04:14:09;20.10;99.90
1137;DHT22;557;48.466;7.950;2023-06-22T04:16:57;20.10;99.90
1137;DHT22;557;48.466;7.950;2023-06-22T04:19:45;20.10;99.90
1137;DHT22;557;48.466;7.950;2023-06-22T04:22:33;20.10;99.90
1137;DHT22;557;48.466;7.950;2023-06-22T04:25:20;20.20;99.90
1137;DHT22;557;48.466;7.950;2023-06-22T04:28:08;20.30;99.90
1137;DHT22;557;48.466;7.950;2023-06-22T04:30:58;20.30;99.90
1137;DHT22;557;48.466;7.950;2023-06-22T04:33:47;20.30;99.90
1137;DHT22;557;48.466;7.950;2023-06-22T04:36:40;20.40;99.90
1137;DHT22;557;48.466;7.950;2023-06-22T04:39:27;20.50;99.90
1137;DHT22;557;48.466;7.950;2023-06-22T04:42:15;20.50;99.90
1137;DHT22;557;48.466;7.950;2023-06-22T04:45:02;20.50;99.90
1137;DHT22;557;48.466;7.950;2023-06-22T04:47:51;20.50;99.90
1137;DHT22;557;48.466;7.950;2023-06-22T04:50:38;20.40;99.90
1137;DHT22;557;48.466;7.950;2023-06-22T04:53:27;20.40;99.90
1137;DHT22;557;48.466;7.950;2023-06-22T04:56:16;20.40;99.90
1137;DHT22;557;48.466;7.950;2023-06-22T04:59:03;20.40;99.90
1137;DHT22;557;48.466;7.950;2023-06-22T05:01:50;20.40;99.90
1137;DHT22;557;48.466;7.950;2023-06-22T05:04:39;20.40;99.90
1137;DHT22;557;48.466;7.950;2023-06-22T05:07:27;20.40;99.90
1137;DHT22;557;48.466;7.950;2023-06-22T05:10:15;20.50;99.90
1137;DHT22;557;48.466;7.950;2023-06-22T05:13:03;20.50;99.90
1137;DHT22;557;48.466;7.950;2023-06-22T05:15:50;20.70;99.90
1137;DHT22;557;48.466;7.950;2023-06-22T05:18:38;20.80;99.90
1137;DHT22;557;48.466;7.950;2023-06-22T05:21:27;20.80;99.90
1137;DHT22;557;48.466;7.950;2023-06-22T05:24:15;20.90;99.90
1137;DHT22;557;48.466;7.950;2023-06-22T05:27:06;20.90;99.90
1137;DHT22;557;48.466;7.950;2023-06-22T05:29:53;21.10;99.90
1137;DHT22;557;48.466;7.950;2023-06-22T05:32:41;21.10;99.90
1137;DHT22;557;48.466;7.950;2023-06-22T05:35:30;21.10;99.90
1137;DHT22;557;48.466;7.950;2023-06-22T05:38:17;21.30;99.90
1137;DHT22;557;48.466;7.950;2023-06-22T05:41:04;21.30;99.90
1137;DHT22;557;48.466;7.950;2023-06-22T05:43:53;21.40;99.90
1137;DHT22;557;48.466;7.950;2023-06-22T05:46:42;21.50;99.90
1137;DHT22;557;48.466;7.950;2023-06-22T05:49:30;21.50;99.90
1137;DHT22;557;48.466;7.950;2023-06-22T05:52:18;21.60;99.90
1137;DHT22;557;48.466;7.950;2023-06-22T05:55:06;21.70;99.90
1137;DHT22;557;48.466;7.950;2023-06-22T05:57:54;21.80;99.90
1137;DHT22;557;48.466;7.950;2023-06-22T06:00:42;22.00;99.90
1137;DHT22;557;48.466;7.950;2023-06-22T06:03:34;22.20;99.90
1137;DHT22;557;48.466;7.950;2023-06-22T06:06:26;22.30;99.90
1137;DHT22;557;48.466;7.950;2023-06-22T06:09:14;22.50;97.10
1137;DHT22;557;48.466;7.950;2023-06-22T06:12:02;22.60;97.50
1137;DHT22;557;48.466;7.950;2023-06-22T06:14:50;22.80;59.70
1137;DHT22;557;48.466;7.950;2023-06-22T06:17:46;22.90;48.20
1137;DHT22;557;48.466;7.950;2023-06-22T06:20:34;22.80;49.30
1137;DHT22;557;48.466;7.950;2023-06-22T06:23:21;22.80;51.90
1137;DHT22;557;48.466;7.950;2023-06-22T06:26:08;22.90;40.60
1137;DHT22;557;48.466;7.950;2023-06-22T06:28:56;23.00;12.20
1137;DHT22;557;48.466;7.950;2023-06-22T06:31:44;23.20;1.00
1137;DHT22;557;48.466;7.950;2023-06-22T06:34:32;23.30;1.00
1137;DHT22;557;48.466;7.950;2023-06-22T06:37:20;23.50;1.00
1137;DHT22;557;48.466;7.950;2023-06-22T06:40:08;23.60;1.00
1137;DHT22;557;48.466;7.950;2023-06-22T06:42:57;23.60;1.00
1137;DHT22;557;48.466;7.950;2023-06-22T06:45:44;23.50;1.00
1137;DHT22;557;48.466;7.950;2023-06-22T06:48:31;23.50;1.00
1137;DHT22;557;48.466;7.950;2023-06-22T06:51:20;23.70;1.00
1137;DHT22;557;48.466;7.950;2023-06-22T06:54:07;23.90;1.00
1137;DHT22;557;48.466;7.950;2023-06-22T06:56:55;24.10;1.00
1137;DHT22;557;48.466;7.950;2023-06-22T06:59:43;23.90;1.00
1137;DHT22;557;48.466;7.950;2023-06-22T07:02:30;24.00;1.00
1137;DHT22;557;48.466;7.950;2023-06-22T07:05:17;24.30;1.00
1137;DHT22;557;48.466;7.950;2023-06-22T07:08:06;24.80;1.00
1137;DHT22;557;48.466;7.950;2023-06-22T07:10:53;25.00;1.00
1137;DHT22;557;48.466;7.950;2023-06-22T07:13:41;24.80;99.90
1137;DHT22;557;48.466;7.950;2023-06-22T07:16:28;24.70;1.00
1137;DHT22;557;48.466;7.950;2023-06-22T07:19:24;24.70;1.00
1137;DHT22;557;48.466;7.950;2023-06-22T07:22:12;24.80;1.00
1137;DHT22;557;48.466;7.950;2023-06-22T07:25:01;24.70;1.00
1137;DHT22;557;48.466;7.950;2023-06-22T07:27:58;24.60;1.00
1137;DHT22;557;48.466;7.950;2023-06-22T07:30:47;24.40;1.00
1137;DHT22;557;48.466;7.950;2023-06-22T07:33:34;24.10;1.00
1137;DHT22;557;48.466;7.950;2023-06-22T07:36:21;23.90;1.00
1137;DHT22;557;48.466;7.950;2023-06-22T07:39:09;23.70;1.30
1137;DHT22;557;48.466;7.950;2023-06-22T07:41:57;23.50;34.20
1137;DHT22;557;48.466;7.950;2023-06-22T07:44:45;23.40;42.00
1137;DHT22;557;48.466;7.950;2023-06-22T07:47:35;23.30;51.40
1137;DHT22;557;48.466;7.950;2023-06-22T07:50:23;23.50;98.20
1137;DHT22;557;48.466;7.950;2023-06-22T07:53:10;24.00;62.80
1137;DHT22;557;48.466;7.950;2023-06-22T07:55:57;24.70;1.00
1137;DHT22;557;48.466;7.950;2023-06-22T07:58:47;24.90;1.00
1137;DHT22;557;48.466;7.950;2023-06-22T08:01:34;25.20;1.00
1137;DHT22;557;48.466;7.950;2023-06-22T08:04:21;25.30;1.00
1137;DHT22;557;48.466;7.950;2023-06-22T08:07:09;25.30;1.00
1137;DHT22;557;48.466;7.950;2023-06-22T08:09:56;25.20;1.00
1137;DHT22;557;48.466;7.950;2023-06-22T08:12:43;25.00;1.00
1137;DHT22;557;48.466;7.950;2023-06-22T08:15:32;25.00;1.00
1137;DHT22;557;48.466;7.950;2023-06-22T08:18:19;25.00;1.00
1137;DHT22;557;48.466;7.950;2023-06-22T08:21:07;25.30;1.00
1137;DHT22;557;48.466;7.950;2023-06-22T08:23:54;25.50;1.00
1137;DHT22;557;48.466;7.950;2023-06-22T08:26:41;25.30;1.00
1137;DHT22;557;48.466;7.950;2023-06-22T08:29:29;25.40;1.00
1137;DHT22;557;48.466;7.950;2023-06-22T08:32:17;25.70;1.00
1137;DHT22;557;48.466;7.950;2023-06-22T08:35:06;25.60;1.00
1137;DHT22;557;48.466;7.950;2023-06-22T08:37:54;25.40;1.00
1137;DHT22;557;48.466;7.950;2023-06-22T08:40:42;25.50;1.00
1137;DHT22;557;48.466;7.950;2023-06-22T08:43:30;25.60;1.00
1137;DHT22;557;48.466;7.950;2023-06-22T08:46:17;25.80;99.90
1137;DHT22;557;48.466;7.950;2023-06-22T08:49:09;25.80;99.90
1137;DHT22;557;48.466;7.950;2023-06-22T08:51:57;26.20;99.90
1137;DHT22;557;48.466;7.950;2023-06-22T08:54:44;26.30;1.00
1137;DHT22;557;48.466;7.950;2023-06-22T08:57:31;26.50;99.90
1137;DHT22;557;48.466;7.950;2023-06-22T09:00:19;26.60;99.90
1137;DHT22;557;48.466;7.950;2023-06-22T09:03:07;26.60;99.90
1137;DHT22;557;48.466;7.950;2023-06-22T09:05:56;26.80;99.90
1137;DHT22;557;48.466;7.950;2023-06-22T09:08:43;26.90;41.60
1137;DHT22;557;48.466;7.950;2023-06-22T09:11:30;27.10;1.00
1137;DHT22;557;48.466;7.950;2023-06-22T09:14:17;27.30;99.90
1137;DHT22;557;48.466;7.950;2023-06-22T09:17:05;27.10;1.00
1137;DHT22;557;48.466;7.950;2023-06-22T09:19:52;26.90;1.00
1137;DHT22;557;48.466;7.950;2023-06-22T09:22:41;26.70;99.90
1137;DHT22;557;48.466;7.950;2023-06-22T09:25:29;26.80;1.00
1137;DHT22;557;48.466;7.950;2023-06-22T09:28:16;26.90;48.30
1137;DHT22;557;48.466;7.950;2023-06-22T09:31:03;26.90;99.90
1137;DHT22;557;48.466;7.950;2023-06-22T09:33:52;27.10;1.00
1137;DHT22;557;48.466;7.950;2023-06-22T09:36:41;27.10;99.90
1137;DHT22;557;48.466;7.950;2023-06-22T09:39:30;27.20;1.00
1137;DHT22;557;48.466;7.950;2023-06-22T09:42:17;27.20;99.90
1137;DHT22;557;48.466;7.950;2023-06-22T09:45:05;27.30;1.00
1137;DHT22;557;48.466;7.950;2023-06-22T09:47:52;27.30;99.90
1137;DHT22;557;48.466;7.950;2023-06-22T09:50:40;27.40;1.00
1137;DHT22;557;48.466;7.950;2023-06-22T09:53:27;27.40;99.90
1137;DHT22;557;48.466;7.950;2023-06-22T09:56:16;27.50;90.70
1137;DHT22;557;48.466;7.950;2023-06-22T09:59:03;28.00;1.00
1137;DHT22;557;48.466;7.950;2023-06-22T10:01:50;28.60;99.90
1137;DHT22;557;48.466;7.950;2023-06-22T10:04:38;29.00;99.90
1137;DHT22;557;48.466;7.950;2023-06-22T10:07:26;29.30;99.90
1137;DHT22;557;48.466;7.950;2023-06-22T10:10:13;29.40;99.90
1137;DHT22;557;48.466;7.950;2023-06-22T10:13:08;29.60;99.90
1137;DHT22;557;48.466;7.950;2023-06-22T10:15:56;29.70;25.80
1137;DHT22;557;48.466;7.950;2023-06-22T10:18:44;29.70;99.90
1137;DHT22;557;48.466;7.950;2023-06-22T10:21:31;29.80;1.00
1137;DHT22;557;48.466;7.950;2023-06-22T10:24:19;29.80;3.00
1137;DHT22;557;48.466;7.950;2023-06-22T10:27:07;29.90;1.00
1137;DHT22;557;48.466;7.950;2023-06-22T10:29:55;29.90;1.00
1137;DHT22;557;48.466;7.950;2023-06-22T10:32:43;30.00;1.00
1137;DHT22;557;48.466;7.950;2023-06-22T10:35:30;30.20;1.00
1137;DHT22;557;48.466;7.950;2023-06-22T10:38:17;30.60;99.90
1137;DHT22;557;48.466;7.950;2023-06-22T10:41:05;30.40;99.90
1137;DHT22;557;48.466;7.950;2023-06-22T10:43:52;30.30;99.90
1137;DHT22;557;48.466;7.950;2023-06-22T10:46:41;30.20;99.90
1137;DHT22;557;48.466;7.950;2023-06-22T10:49:29;29.90;99.90
1137;DHT22;557;48.466;7.950;2023-06-22T10:52:17;29.90;1.00
1137;DHT22;557;48.466;7.950;2023-06-22T10:55:05;30.30;99.90
1137;DHT22;557;48.466;7.950;2023-06-22T10:57:52;30.40;99.90
1137;DHT22;557;48.466;7.950;2023-06-22T11:00:40;30.50;99.90
1137;DHT22;557;48.466;7.950;2023-06-22T11:03:28;30.10;99.90
1137;DHT22;557;48.466;7.950;2023-06-22T11:06:16;29.90;99.90
1137;DHT22;557;48.466;7.950;2023-06-22T11:09:03;30.00;99.90
1137;DHT22;557;48.466;7.950;2023-06-22T11:11:51;29.90;99.90
1137;DHT22;557;48.466;7.950;2023-06-22T11:14:40;29.70;99.90
1137;DHT22;557;48.466;7.950;2023-06-22T11:17:27;29.70;99.90
1137;DHT22;557;48.466;7.950;2023-06-22T11:20:16;29.90;99.90
1137;DHT22;557;48.466;7.950;2023-06-22T11:23:03;29.90;99.90
1137;DHT22;557;48.466;7.950;2023-06-22T11:25:50;29.90;99.90
1137;DHT22;557;48.466;7.950;2023-06-22T11:28:38;29.60;99.90
1137;DHT22;557;48.466;7.950;2023-06-22T11:31:25;29.40;99.90
1137;DHT22;557;48.466;7.950;2023-06-22T11:34:13;29.30;99.90
1137;DHT22;557;48.466;7.950;2023-06-22T11:37:01;29.20;99.90
1137;DHT22;557;48.466;7.950;2023-06-22T11:39:48;28.80;99.90
1137;DHT22;557;48.466;7.950;2023-06-22T11:42:36;28.70;99.90
1137;DHT22;557;48.466;7.950;2023-06-22T11:45:23;28.60;99.90
1137;DHT22;557;48.466;7.950;2023-06-22T11:48:10;28.60;99.90
1137;DHT22;557;48.466;7.950;2023-06-22T11:50:58;28.60;1.00
1137;DHT22;557;48.466;7.950;2023-06-22T11:53:47;28.40;99.90
1137;DHT22;557;48.466;7.950;2023-06-22T11:56:34;28.30;1.00
1137;DHT22;557;48.466;7.950;2023-06-22T11:59:21;28.40;1.00
1137;DHT22;557;48.466;7.950;2023-06-22T12:02:09;28.30;1.00
1137;DHT22;557;48.466;7.950;2023-06-22T12:04:56;28.30;1.00
1137;DHT22;557;48.466;7.950;2023-06-22T12:07:44;28.30;1.00
1137;DHT22;557;48.466;7.950;2023-06-22T12:10:32;28.40;1.00
1137;DHT22;557;48.466;7.950;2023-06-22T12:13:20;28.60;99.90
1137;DHT22;557;48.466;7.950;2023-06-22T12:16:07;28.70;99.90
1137;DHT22;557;48.466;7.950;2023-06-22T12:18:54;28.90;99.90
1137;DHT22;557;48.466;7.950;2023-06-22T12:21:42;29.00;99.90
1137;DHT22;557;48.466;7.950;2023-06-22T12:24:31;29.40;99.90
1137;DHT22;557;48.466;7.950;2023-06-22T12:27:20;29.60;99.90
1137;DHT22;557;48.466;7.950;2023-06-22T12:30:08;29.60;99.90
1137;DHT22;557;48.466;7.950;2023-06-22T12:32:56;29.60;99.90
1137;DHT22;557;48.466;7.950;2023-06-22T12:35:44;29.60;99.90
1137;DHT22;557;48.466;7.950;2023-06-22T12:38:32;29.60;99.90
1137;DHT22;557;48.466;7.950;2023-06-22T12:41:19;29.50;99.90
1137;DHT22;557;48.466;7.950;2023-06-22T12:44:08;29.50;99.90
1137;DHT22;557;48.466;7.950;2023-06-22T12:46:56;29.60;99.90
1137;DHT22;557;48.466;7.950;2023-06-22T12:49:43;29.80;99.90
1137;DHT22;557;48.466;7.950;2023-06-22T12:52:31;30.00;99.90
1137;DHT22;557;48.466;7.950;2023-06-22T12:55:18;30.10;99.90
1137;DHT22;557;48.466;7.950;2023-06-22T12:58:06;30.20;99.90
1137;DHT22;557;48.466;7.950;2023-06-22T13:00:54;30.10;99.90
1137;DHT22;557;48.466;7.950;2023-06-22T13:03:42;30.10;99.90
1137;DHT22;557;48.466;7.950;2023-06-22T13:06:29;30.20;99.90
1137;DHT22;557;48.466;7.950;2023-06-22T13:09:18;30.20;99.90
1137;DHT22;557;48.466;7.950;2023-06-22T13:12:06;29.90;99.90
1137;DHT22;557;48.466;7.950;2023-06-22T13:14:54;29.70;99.90
1137;DHT22;557;48.466;7.950;2023-06-22T13:17:42;29.80;99.90
1137;DHT22;557;48.466;7.950;2023-06-22T13:20:30;30.20;99.90
1137;DHT22;557;48.466;7.950;2023-06-22T13:23:17;30.20;99.90
1137;DHT22;557;48.466;7.950;2023-06-22T13:26:04;30.10;99.90
1137;DHT22;557;48.466;7.950;2023-06-22T13:28:52;30.00;99.90
1137;DHT22;557;48.466;7.950;2023-06-22T13:31:40;29.90;99.90
1137;DHT22;557;48.466;7.950;2023-06-22T13:34:29;29.80;99.90
1137;DHT22;557;48.466;7.950;2023-06-22T13:37:16;29.90;99.90
1137;DHT22;557;48.466;7.950;2023-06-22T13:40:06;29.80;99.90
1137;DHT22;557;48.466;7.950;2023-06-22T13:42:54;30.20;99.90
1137;DHT22;557;48.466;7.950;2023-06-22T13:45:41;30.80;99.90
1137;DHT22;557;48.466;7.950;2023-06-22T13:48:29;31.00;99.90
1137;DHT22;557;48.466;7.950;2023-06-22T13:51:17;30.90;99.90
1137;DHT22;557;48.466;7.950;2023-06-22T13:54:05;30.90;99.90
1137;DHT22;557;48.466;7.950;2023-06-22T13:56:52;31.50;99.90
1137;DHT22;557;48.466;7.950;2023-06-22T13:59:40;31.70;99.90
1137;DHT22;557;48.466;7.950;2023-06-22T14:02:27;31.50;99.90
1137;DHT22;557;48.466;7.950;2023-06-22T14:05:15;31.10;99.90
1137;DHT22;557;48.466;7.950;2023-06-22T14:08:03;31.00;99.90
1137;DHT22;557;48.466;7.950;2023-06-22T14:10:51;31.00;99.90
1137;DHT22;557;48.466;7.950;2023-06-22T14:13:39;31.30;99.90
1137;DHT22;557;48.466;7.950;2023-06-22T14:16:28;31.90;99.90
1137;DHT22;557;48.466;7.950;2023-06-22T14:19:17;31.90;99.90
1137;DHT22;557;48.466;7.950;2023-06-22T14:22:05;31.90;99.90
1137;DHT22;557;48.466;7.950;2023-06-22T14:24:54;32.40;99.90
1137;DHT22;557;48.466;7.950;2023-06-22T14:27:42;32.30;99.90
1137;DHT22;557;48.466;7.950;2023-06-22T14:30:30;32.50;99.90
1137;DHT22;557;48.466;7.950;2023-06-22T14:33:17;32.50;99.90
1137;DHT22;557;48.466;7.950;2023-06-22T14:36:05;32.10;99.90
1137;DHT22;557;48.466;7.950;2023-06-22T14:38:52;31.90;97.40
1137;DHT22;557;48.466;7.950;2023-06-22T14:41:41;32.00;90.60
1137;DHT22;557;48.466;7.950;2023-06-22T14:44:28;32.20;90.60
1137;DHT22;557;48.466;7.950;2023-06-22T14:47:15;32.60;85.20
1137;DHT22;557;48.466;7.950;2023-06-22T14:50:05;32.60;59.30
1137;DHT22;557;48.466;7.950;2023-06-22T14:52:52;32.10;48.60
1137;DHT22;557;48.466;7.950;2023-06-22T14:55:41;31.70;44.10
1137;DHT22;557;48.466;7.950;2023-06-22T14:58:30;31.90;48.70
1137;DHT22;557;48.466;7.950;2023-06-22T15:01:19;32.70;49.50
1137;DHT22;557;48.466;7.950;2023-06-22T15:04:06;33.20;52.10
1137;DHT22;557;48.466;7.950;2023-06-22T15:06:53;33.30;37.80
1137;DHT22;557;48.466;7.950;2023-06-22T15:09:41;33.20;34.20
1137;DHT22;557;48.466;7.950;2023-06-22T15:12:28;32.90;28.00
1137;DHT22;557;48.466;7.950;2023-06-22T15:15:17;33.10;25.30
1137;DHT22;557;48.466;7.950;2023-06-22T15:18:04;33.30;22.90
1137;DHT22;557;48.466;7.950;2023-06-22T15:20:52;33.20;21.40
1137;DHT22;557;48.466;7.950;2023-06-22T15:23:39;33.30;20.70
1137;DHT22;557;48.466;7.950;2023-06-22T15:26:26;33.40;18.70
1137;DHT22;557;48.466;7.950;2023-06-22T15:29:14;33.40;18.30
1137;DHT22;557;48.466;7.950;2023-06-22T15:32:03;33.50;14.60
1137;DHT22;557;48.466;7.950;2023-06-22T15:34:50;33.50;12.90
1137;DHT22;557;48.466;7.950;2023-06-22T15:37:39;33.70;10.50
1137;DHT22;557;48.466;7.950;2023-06-22T15:40:27;34.20;8.60
1137;DHT22;557;48.466;7.950;2023-06-22T15:43:14;34.00;5.40
1137;DHT22;557;48.466;7.950;2023-06-22T15:46:01;34.20;5.30
1137;DHT22;557;48.466;7.950;2023-06-22T15:48:50;34.80;6.30
1137;DHT22;557;48.466;7.950;2023-06-22T15:51:37;35.00;9.90
1137;DHT22;557;48.466;7.950;2023-06-22T15:54:25;35.50;1.00
1137;DHT22;557;48.466;7.950;2023-06-22T15:57:12;35.70;1.00
1137;DHT22;557;48.466;7.950;2023-06-22T15:59:59;35.60;1.00
1137;DHT22;557;48.466;7.950;2023-06-22T16:02:47;35.70;1.00
1137;DHT22;557;48.466;7.950;2023-06-22T16:05:36;35.70;1.00
1137;DHT22;557;48.466;7.950;2023-06-22T16:08:23;35.00;1.00
1137;DHT22;557;48.466;7.950;2023-06-22T16:11:11;33.70;1.00
1137;DHT22;557;48.466;7.950;2023-06-22T16:13:59;32.90;1.00
1137;DHT22;557;48.466;7.950;2023-06-22T16:16:46;32.50;1.00
1137;DHT22;557;48.466;7.950;2023-06-22T16:19:33;32.30;1.00
1137;DHT22;557;48.466;7.950;2023-06-22T16:22:22;32.30;1.00
1137;DHT22;557;48.466;7.950;2023-06-22T16:25:09;32.00;1.00
1137;DHT22;557;48.466;7.950;2023-06-22T16:27:57;31.70;1.00
1137;DHT22;557;48.466;7.950;2023-06-22T16:30:44;31.30;1.00
1137;DHT22;557;48.466;7.950;2023-06-22T16:33:31;31.20;1.00
1137;DHT22;557;48.466;7.950;2023-06-22T16:36:18;31.10;1.00
1137;DHT22;557;48.466;7.950;2023-06-22T16:39:07;30.90;1.00
1137;DHT22;557;48.466;7.950;2023-06-22T16:41:54;30.70;1.00
1137;DHT22;557;48.466;7.950;2023-06-22T16:44:42;30.50;1.00
1137;DHT22;557;48.466;7.950;2023-06-22T16:47:29;30.40;1.00
1137;DHT22;557;48.466;7.950;2023-06-22T16:50:17;30.40;1.00
1137;DHT22;557;48.466;7.950;2023-06-22T16:53:05;30.30;1.00
1137;DHT22;557;48.466;7.950;2023-06-22T16:55:53;30.10;1.00
1137;DHT22;557;48.466;7.950;2023-06-22T16:58:41;29.80;1.00
1137;DHT22;557;48.466;7.950;2023-06-22T17:01:29;29.70;1.00
1137;DHT22;557;48.466;7.950;2023-06-22T17:04:21;29.60;1.10
1137;DHT22;557;48.466;7.950;2023-06-22T17:07:13;29.40;2.50
1137;DHT22;557;48.466;7.950;2023-06-22T17:10:01;29.20;4.40
1137;DHT22;557;48.466;7.950;2023-06-22T17:12:50;29.20;7.90
1137;DHT22;557;48.466;7.950;2023-06-22T17:15:38;29.20;10.10
1137;DHT22;557;48.466;7.950;2023-06-22T17:18:26;29.20;11.80
1137;DHT22;557;48.466;7.950;2023-06-22T17:21:20;29.20;15.30
1137;DHT22;557;48.466;7.950;2023-06-22T17:24:07;29.10;16.90
1137;DHT22;557;48.466;7.950;2023-06-22T17:26:55;29.00;18.50
1137;DHT22;557;48.466;7.950;2023-06-22T17:29:44;28.80;21.40
1137;DHT22;557;48.466;7.950;2023-06-22T17:32:32;28.80;24.60
1137;DHT22;557;48.466;7.950;2023-06-22T17:35:19;28.70;28.40
1137;DHT22;557;48.466;7.950;2023-06-22T17:38:06;28.60;31.50
1137;DHT22;557;48.466;7.950;2023-06-22T17:41:00;28.60;36.90
1137;DHT22;557;48.466;7.950;2023-06-22T17:43:48;28.50;42.60
1137;DHT22;557;48.466;7.950;2023-06-22T17:46:38;28.50;47.80
1137;DHT22;557;48.466;7.950;2023-06-22T17:49:27;28.50;52.90
1137;DHT22;557;48.466;7.950;2023-06-22T17:52:16;28.40;55.50
1137;DHT22;557;48.466;7.950;2023-06-22T17:55:04;28.40;65.00
1137;DHT22;557;48.466;7.950;2023-06-22T17:57:55;28.30;74.30
1137;DHT22;557;48.466;7.950;2023-06-22T18:00:44;28.20;73.80
1137;DHT22;557;48.466;7.950;2023-06-22T18:03:35;28.10;94.70
1137;DHT22;557;48.466;7.950;2023-06-22T18:06:26;28.20;99.90
1137;DHT22;557;48.466;7.950;2023-06-22T18:09:16;28.20;99.90
1137;DHT22;557;48.466;7.950;2023-06-22T18:12:06;28.00;99.90
1137;DHT22;557;48.466;7.950;2023-06-22T18:14:56;27.90;99.90
1137;DHT22;557;48.466;7.950;2023-06-22T18:17:44;27.80;99.90
1137;DHT22;557;48.466;7.950;2023-06-22T18:20:33;27.70;99.90
1137;DHT22;557;48.466;7.950;2023-06-22T18:23:30;27.70;99.90
1137;DHT22;557;48.466;7.950;2023-06-22T18:26:24;27.70;99.90
1137;DHT22;557;48.466;7.950;2023-06-22T18:29:13;27.60;99.90
1137;DHT22;557;48.466;7.950;2023-06-22T18:32:01;27.50;99.90
1137;DHT22;557;48.466;7.950;2023-06-22T18:34:48;27.50;99.90
1137;DHT22;557;48.466;7.950;2023-06-22T18:37:41;27.40;99.90
1137;DHT22;557;48.466;7.950;2023-06-22T18:40:30;27.30;99.90
1137;DHT22;557;48.466;7.950;2023-06-22T18:43:21;27.30;99.90